sensor_id;sensor_type;location;lat;lon;timestamp;pressure;altitude;pressure_sealevel;temperature;humidity
61697;BME280;47610;52.252;20.922;2023-06-14T00:04:17;100440.77;;;13.07;100.00
61697;BME280;47610;52.252;20.922;2023-06-14T00:09:22;100442.77;;;13.06;100.00
61697;BME280;47610;52.252;20.922;2023-06-14T00:14:26;100438.86;;;12.97;100.00
61697;BME280;47610;52.252;20.922;2023-06-14T00:19:30;100435.40;;;12.89;100.00
61697;BME280;47610;52.252;20.922;2023-06-14T00:24:34;100426.34;;;12.83;100.00
61697;BME280;47610;52.252;20.922;2023-06-14T00:29:37;100425.66;;;12.78;100.00
61697;BME280;47610;52.252;20.922;2023-06-14T00:34:40;100425.90;;;12.75;100.00
61697;BME280;47610;52.252;20.922;2023-06-14T00:39:45;100419.98;;;12.77;100.00
61697;BME280;47610;52.252;20.922;2023-06-14T00:44:49;100418.54;;;12.77;100.00
61697;BME280;47610;52.252;20.922;2023-06-14T00:49:53;100417.66;;;12.77;100.00
61697;BME280;47610;52.252;20.922;2023-06-14T00:54:58;100420.89;;;12.81;100.00
61697;BME280;47610;52.252;20.922;2023-06-14T01:00:01;100421.25;;;12.84;100.00
61697;BME280;47610;52.252;20.922;2023-06-14T01:05:06;100420.86;;;12.84;100.00
61697;BME280;47610;52.252;20.922;2023-06-14T01:10:29;100420.66;;;12.81;100.00
61697;BME280;47610;52.252;20.922;2023-06-14T01:15:35;100420.97;;;12.78;100.00
61697;BME280;47610;52.252;20.922;2023-06-14T01:20:40;100420.01;;;12.80;100.00
61697;BME280;47610;52.252;20.922;2023-06-14T01:25:44;100419.92;;;12.77;100.00
61697;BME280;47610;52.252;20.922;2023-06-14T01:30:50;100417.81;;;12.72;100.00
61697;BME280;47610;52.252;20.922;2023-06-14T01:35:54;100417.74;;;12.68;100.00
61697;BME280;47610;52.252;20.922;2023-06-14T01:41:00;100418.28;;;12.63;100.00
61697;BME280;47610;52.252;20.922;2023-06-14T01:46:04;100411.91;;;12.57;100.00
61697;BME280;47610;52.252;20.922;2023-06-14T01:51:08;100413.48;;;12.54;100.00
61697;BME280;47610;52.252;20.922;2023-06-14T01:56:12;100412.12;;;12.51;100.00
61697;BME280;47610;52.252;20.922;2023-06-14T02:01:15;100410.59;;;12.51;100.00
61697;BME280;47610;52.252;20.922;2023-06-14T02:06:18;100407.22;;;12.51;100.00
61697;BME280;47610;52.252;20.922;2023-06-14T02:11:21;100403.68;;;12.57;100.00
61697;BME280;47610;52.252;20.922;2023-06-14T02:16:26;100399.32;;;12.64;100.00
61697;BME280;47610;52.252;20.922;2023-06-14T02:21:29;100396.17;;;12.71;100.00
61697;BME280;47610;52.252;20.922;2023-06-14T02:26:32;100399.37;;;12.78;100.00
61697;BME280;47610;52.252;20.922;2023-06-14T02:31:36;100403.21;;;12.79;100.00
61697;BME280;47610;52.252;20.922;2023-06-14T02:36:41;100400.81;;;12.76;100.00
61697;BME280;47610;52.252;20.922;2023-06-14T02:41:44;100402.44;;;12.79;100.00
61697;BME280;47610;52.252;20.922;2023-06-14T02:46:47;100400.83;;;12.81;100.00
61697;BME280;47610;52.252;20.922;2023-06-14T02:51:51;100398.52;;;12.86;100.00
61697;BME280;47610;52.252;20.922;2023-06-14T02:56:56;100395.44;;;12.91;100.00
61697;BME280;47610;52.252;20.922;2023-06-14T03:01:59;100391.75;;;12.89;100.00
61697;BME280;47610;52.252;20.922;2023-06-14T03:07:06;100390.64;;;12.90;100.00
61697;BME280;47610;52.252;20.922;2023-06-14T03:12:11;100392.16;;;12.92;100.00
61697;BME280;47610;52.252;20.922;2023-06-14T03:17:17;100388.58;;;12.86;100.00
61697;BME280;47610;52.252;20.922;2023-06-14T03:22:20;100391.23;;;12.85;100.00
61697;BME280;47610;52.252;20.922;2023-06-14T03:27:24;100388.27;;;12.83;100.00
61697;BME280;47610;52.252;20.922;2023-06-14T03:32:27;100387.89;;;12.81;100.00
61697;BME280;47610;52.252;20.922;2023-06-14T03:37:31;100391.63;;;12.78;100.00
61697;BME280;47610;52.252;20.922;2023-06-14T03:42:35;100390.20;;;12.77;100.00
61697;BME280;47610;52.252;20.922;2023-06-14T03:47:38;100384.83;;;12.79;100.00
61697;BME280;47610;52.252;20.922;2023-06-14T03:52:42;100383.66;;;12.85;100.00
61697;BME280;47610;52.252;20.922;2023-06-14T03:57:45;100389.73;;;12.92;100.00
61697;BME280;47610;52.252;20.922;2023-06-14T04:02:49;100391.64;;;12.95;100.00
61697;BME280;47610;52.252;20.922;2023-06-14T04:07:55;100390.46;;;12.96;100.00
61697;BME280;47610;52.252;20.922;2023-06-14T04:12:58;100396.05;;;13.00;100.00
61697;BME280;47610;52.252;20.922;2023-06-14T04:18:04;100400.08;;;13.07;100.00
61697;BME280;47610;52.252;20.922;2023-06-14T04:23:17;100401.16;;;13.15;100.00
61697;BME280;47610;52.252;20.922;2023-06-14T04:28:22;100402.65;;;13.21;100.00
61697;BME280;47610;52.252;20.922;2023-06-14T04:33:25;100401.13;;;13.24;100.00
61697;BME280;47610;52.252;20.922;2023-06-14T04:38:28;100395.97;;;13.28;100.00
61697;BME280;47610;52.252;20.922;2023-06-14T04:43:33;100391.02;;;13.31;100.00
61697;BME280;47610;52.252;20.922;2023-06-14T04:48:36;100387.58;;;13.38;100.00
61697;BME280;47610;52.252;20.922;2023-06-14T04:53:42;100388.31;;;13.45;100.00
61697;BME280;47610;52.252;20.922;2023-06-14T04:58:45;100387.53;;;13.54;100.00
61697;BME280;47610;52.252;20.922;2023-06-14T05:03:49;100398.20;;;13.67;100.00
61697;BME280;47610;52.252;20.922;2023-06-14T05:08:53;100406.25;;;13.79;100.00
61697;BME280;47610;52.252;20.922;2023-06-14T05:13:59;100408.18;;;13.84;100.00
61697;BME280;47610;52.252;20.922;2023-06-14T05:19:03;100406.83;;;13.85;100.00
61697;BME280;47610;52.252;20.922;2023-06-14T05:24:07;100406.09;;;13.83;100.00
61697;BME280;47610;52.252;20.922;2023-06-14T05:29:10;100408.30;;;13.79;100.00
61697;BME280;47610;52.252;20.922;2023-06-14T05:34:13;100414.30;;;13.77;100.00
61697;BME280;47610;52.252;20.922;2023-06-14T05:39:18;100413.45;;;13.75;100.00
61697;BME280;47610;52.252;20.922;2023-06-14T05:44:21;100414.95;;;13.78;100.00
61697;BME280;47610;52.252;20.922;2023-06-14T05:49:25;100415.66;;;13.87;100.00
61697;BME280;47610;52.252;20.922;2023-06-14T05:54:28;100414.77;;;13.91;100.00
61697;BME280;47610;52.252;20.922;2023-06-14T05:59:34;100418.14;;;13.97;100.00
61697;BME280;47610;52.252;20.922;2023-06-14T06:04:37;100417.33;;;14.03;100.00
61697;BME280;47610;52.252;20.922;2023-06-14T06:09:40;100416.23;;;14.15;100.00
61697;BME280;47610;52.252;20.922;2023-06-14T06:14:43;100417.18;;;14.22;100.00
61697;BME280;47610;52.252;20.922;2023-06-14T06:19:47;100417.04;;;14.32;100.00
61697;BME280;47610;52.252;20.922;2023-06-14T06:24:52;100416.64;;;14.59;100.00
61697;BME280;47610;52.252;20.922;2023-06-14T06:29:55;100419.19;;;14.69;100.00
61697;BME280;47610;52.252;20.922;2023-06-14T06:34:59;100424.09;;;14.75;100.00
61697;BME280;47610;52.252;20.922;2023-06-14T06:40:04;100429.95;;;14.73;100.00
61697;BME280;47610;52.252;20.922;2023-06-14T06:45:13;100432.30;;;14.71;100.00
61697;BME280;47610;52.252;20.922;2023-06-14T06:50:17;100433.35;;;14.78;100.00
61697;BME280;47610;52.252;20.922;2023-06-14T06:55:21;100432.00;;;14.95;100.00
61697;BME280;47610;52.252;20.922;2023-06-14T07:00:26;100432.06;;;15.01;100.00
61697;BME280;47610;52.252;20.922;2023-06-14T07:05:29;100434.13;;;14.97;100.00
61697;BME280;47610;52.252;20.922;2023-06-14T07:10:32;100436.22;;;14.89;100.00
61697;BME280;47610;52.252;20.922;2023-06-14T07:15:35;100432.44;;;14.83;100.00
61697;BME280;47610;52.252;20.922;2023-06-14T07:20:38;100430.56;;;14.82;100.00
61697;BME280;47610;52.252;20.922;2023-06-14T07:25:42;100438.14;;;14.89;100.00
61697;BME280;47610;52.252;20.922;2023-06-14T07:30:45;100441.35;;;14.99;100.00
61697;BME280;47610;52.252;20.922;2023-06-14T07:35:49;100445.59;;;15.11;100.00
61697;BME280;47610;52.252;20.922;2023-06-14T07:40:54;100452.98;;;15.25;100.00
61697;BME280;47610;52.252;20.922;2023-06-14T07:45:57;100454.39;;;15.48;100.00
61697;BME280;47610;52.252;20.922;2023-06-14T07:51:00;100451.70;;;15.76;100.00
61697;BME280;47610;52.252;20.922;2023-06-14T07:56:04;100451.05;;;15.97;100.00
61697;BME280;47610;52.252;20.922;2023-06-14T08:01:09;100452.44;;;15.98;100.00
61697;BME280;47610;52.252;20.922;2023-06-14T08:06:16;100447.43;;;16.07;100.00
61697;BME280;47610;52.252;20.922;2023-06-14T08:11:19;100452.52;;;16.19;100.00
61697;BME280;47610;52.252;20.922;2023-06-14T08:16:23;100451.33;;;16.20;100.00
61697;BME280;47610;52.252;20.922;2023-06-14T08:21:28;100452.76;;;16.26;100.00
61697;BME280;47610;52.252;20.922;2023-06-14T08:26:30;100457.40;;;16.30;100.00
61697;BME280;47610;52.252;20.922;2023-06-14T08:31:35;100456.81;;;16.34;100.00
61697;BME280;47610;52.252;20.922;2023-06-14T08:36:38;100461.42;;;16.44;100.00
61697;BME280;47610;52.252;20.922;2023-06-14T08:41:43;100461.91;;;16.51;100.00
61697;BME280;47610;52.252;20.922;2023-06-14T08:46:52;100454.52;;;16.56;100.00
61697;BME280;47610;52.252;20.922;2023-06-14T08:51:58;100448.09;;;16.69;100.00
61697;BME280;47610;52.252;20.922;2023-06-14T08:57:02;100447.50;;;16.80;100.00
61697;BME280;47610;52.252;20.922;2023-06-14T09:02:09;100441.15;;;17.12;100.00
61697;BME280;47610;52.252;20.922;2023-06-14T09:07:13;100441.10;;;17.32;100.00
61697;BME280;47610;52.252;20.922;2023-06-14T09:12:16;100441.08;;;17.48;100.00
61697;BME280;47610;52.252;20.922;2023-06-14T09:17:19;100442.66;;;17.59;100.00
61697;BME280;47610;52.252;20.922;2023-06-14T09:22:24;100447.71;;;17.84;100.00
61697;BME280;47610;52.252;20.922;2023-06-14T09:27:28;100447.66;;;18.10;100.00
61697;BME280;47610;52.252;20.922;2023-06-14T09:32:32;100451.90;;;18.14;100.00
61697;BME280;47610;52.252;20.922;2023-06-14T09:37:40;100450.23;;;18.04;100.00
61697;BME280;47610;52.252;20.922;2023-06-14T09:42:42;100452.34;;;17.95;100.00
61697;BME280;47610;52.252;20.922;2023-06-14T09:47:47;100446.61;;;17.77;100.00
61697;BME280;47610;52.252;20.922;2023-06-14T09:52:52;100444.24;;;17.62;100.00
61697;BME280;47610;52.252;20.922;2023-06-14T09:57:57;100450.83;;;17.68;100.00
61697;BME280;47610;52.252;20.922;2023-06-14T10:03:03;100454.59;;;17.74;100.00
61697;BME280;47610;52.252;20.922;2023-06-14T10:08:13;100448.67;;;17.91;100.00
61697;BME280;47610;52.252;20.922;2023-06-14T10:13:19;100448.70;;;18.12;100.00
61697;BME280;47610;52.252;20.922;2023-06-14T10:18:31;100443.10;;;18.25;100.00
61697;BME280;47610;52.252;20.922;2023-06-14T10:23:37;100440.55;;;18.38;100.00
61697;BME280;47610;52.252;20.922;2023-06-14T10:28:57;100438.45;;;18.62;100.00
61697;BME280;47610;52.252;20.922;2023-06-14T10:34:01;100444.00;;;18.70;100.00
61697;BME280;47610;52.252;20.922;2023-06-14T10:39:10;100442.16;;;18.80;100.00
61697;BME280;47610;52.252;20.922;2023-06-14T10:49:49;100435.63;;;18.96;100.00
61697;BME280;47610;52.252;20.922;2023-06-14T10:55:14;100435.56;;;18.97;100.00
61697;BME280;47610;52.252;20.922;2023-06-14T11:00:20;100430.80;;;18.89;100.00
61697;BME280;47610;52.252;20.922;2023-06-14T11:05:27;100435.52;;;18.92;100.00
61697;BME280;47610;52.252;20.922;2023-06-14T11:10:37;100426.95;;;18.93;100.00
61697;BME280;47610;52.252;20.922;2023-06-14T11:15:45;100430.00;;;18.88;100.00
61697;BME280;47610;52.252;20.922;2023-06-14T11:20:49;100422.84;;;18.74;100.00
61697;BME280;47610;52.252;20.922;2023-06-14T11:25:53;100418.09;;;18.71;100.00
61697;BME280;47610;52.252;20.922;2023-06-14T11:31:03;100418.06;;;18.78;100.00
61697;BME280;47610;52.252;20.922;2023-06-14T11:36:08;100423.23;;;18.69;100.00
61697;BME280;47610;52.252;20.922;2023-06-14T11:41:12;100418.74;;;18.61;100.00
61697;BME280;47610;52.252;20.922;2023-06-14T11:46:20;100417.02;;;18.74;100.00
61697;BME280;47610;52.252;20.922;2023-06-14T11:51:25;100417.05;;;18.94;100.00
61697;BME280;47610;52.252;20.922;2023-06-14T11:56:28;100415.64;;;19.00;100.00
61697;BME280;47610;52.252;20.922;2023-06-14T12:01:35;100418.61;;;18.90;100.00
61697;BME280;47610;52.252;20.922;2023-06-14T12:06:39;100417.09;;;18.80;100.00
61697;BME280;47610;52.252;20.922;2023-06-14T12:11:43;100411.66;;;18.87;100.00
61697;BME280;47610;52.252;20.922;2023-06-14T12:16:49;100414.46;;;18.94;100.00
61697;BME280;47610;52.252;20.922;2023-06-14T12:21:52;100409.73;;;18.73;100.00
61697;BME280;47610;52.252;20.922;2023-06-14T12:26:56;100407.00;;;18.66;100.00
61697;BME280;47610;52.252;20.922;2023-06-14T12:32:00;100405.11;;;18.54;100.00
61697;BME280;47610;52.252;20.922;2023-06-14T12:37:05;100407.27;;;18.45;100.00
61697;BME280;47610;52.252;20.922;2023-06-14T12:42:09;100407.73;;;18.45;100.00
61697;BME280;47610;52.252;20.922;2023-06-14T12:47:14;100403.27;;;18.54;100.00
61697;BME280;47610;52.252;20.922;2023-06-14T12:52:19;100403.08;;;18.65;100.00
61697;BME280;47610;52.252;20.922;2023-06-14T12:57:23;100395.02;;;18.65;100.00
61697;BME280;47610;52.252;20.922;2023-06-14T13:02:27;100391.34;;;18.71;100.00
61697;BME280;47610;52.252;20.922;2023-06-14T13:07:30;100390.55;;;18.75;100.00
61697;BME280;47610;52.252;20.922;2023-06-14T13:12:34;100390.02;;;18.67;100.00
61697;BME280;47610;52.252;20.922;2023-06-14T13:17:36;100389.63;;;18.60;100.00
61697;BME280;47610;52.252;20.922;2023-06-14T13:22:39;100388.27;;;18.48;100.00
61697;BME280;47610;52.252;20.922;2023-06-14T13:27:42;100385.18;;;18.31;100.00
61697;BME280;47610;52.252;20.922;2023-06-14T13:32:46;100382.52;;;18.32;100.00
61697;BME280;47610;52.252;20.922;2023-06-14T13:37:50;100379.05;;;18.37;100.00
61697;BME280;47610;52.252;20.922;2023-06-14T13:42:53;100376.08;;;18.42;100.00
61697;BME280;47610;52.252;20.922;2023-06-14T13:47:57;100375.27;;;18.60;100.00
61697;BME280;47610;52.252;20.922;2023-06-14T13:53:01;100370.83;;;18.81;100.00
61697;BME280;47610;52.252;20.922;2023-06-14T13:58:04;100367.10;;;18.94;100.00
61697;BME280;47610;52.252;20.922;2023-06-14T14:03:08;100363.96;;;18.99;100.00
61697;BME280;47610;52.252;20.922;2023-06-14T14:08:12;100364.98;;;18.97;100.00
61697;BME280;47610;52.252;20.922;2023-06-14T14:13:16;100359.69;;;18.85;100.00
61697;BME280;47610;52.252;20.922;2023-06-14T14:18:20;100365.67;;;18.73;100.00
61697;BME280;47610;52.252;20.922;2023-06-14T14:23:24;100366.81;;;18.62;100.00
61697;BME280;47610;52.252;20.922;2023-06-14T14:28:27;100362.98;;;18.70;100.00
61697;BME280;47610;52.252;20.922;2023-06-14T14:33:31;100366.58;;;18.79;100.00
61697;BME280;47610;52.252;20.922;2023-06-14T14:38:35;100368.80;;;18.73;100.00
61697;BME280;47610;52.252;20.922;2023-06-14T14:43:39;100365.91;;;18.67;100.00
61697;BME280;47610;52.252;20.922;2023-06-14T14:48:45;100359.94;;;18.66;100.00
61697;BME280;47610;52.252;20.922;2023-06-14T14:53:48;100357.13;;;18.58;100.00
61697;BME280;47610;52.252;20.922;2023-06-14T14:58:51;100354.80;;;18.49;100.00
61697;BME280;47610;52.252;20.922;2023-06-14T15:03:55;100354.33;;;18.42;100.00
61697;BME280;47610;52.252;20.922;2023-06-14T15:08:58;100352.13;;;18.39;100.00
61697;BME280;47610;52.252;20.922;2023-06-14T15:14:01;100343.48;;;18.36;100.00
61697;BME280;47610;52.252;20.922;2023-06-14T15:19:04;100340.73;;;18.32;100.00
61697;BME280;47610;52.252;20.922;2023-06-14T15:24:10;100340.17;;;18.25;100.00
61697;BME280;47610;52.252;20.922;2023-06-14T15:29:13;100338.95;;;18.12;100.00
61697;BME280;47610;52.252;20.922;2023-06-14T15:34:16;100333.02;;;18.03;100.00
61697;BME280;47610;52.252;20.922;2023-06-14T15:39:20;100328.46;;;17.95;100.00
61697;BME280;47610;52.252;20.922;2023-06-14T15:44:24;100328.77;;;17.96;100.00
61697;BME280;47610;52.252;20.922;2023-06-14T15:49:27;100324.35;;;18.02;100.00
61697;BME280;47610;52.252;20.922;2023-06-14T15:54:31;100325.80;;;18.06;100.00
61697;BME280;47610;52.252;20.922;2023-06-14T15:59:35;100324.02;;;18.09;100.00
61697;BME280;47610;52.252;20.922;2023-06-14T16:04:38;100321.76;;;18.10;100.00
61697;BME280;47610;52.252;20.922;2023-06-14T16:09:42;100320.20;;;18.10;100.00
61697;BME280;47610;52.252;20.922;2023-06-14T16:14:47;100316.77;;;18.02;100.00
61697;BME280;47610;52.252;20.922;2023-06-14T16:19:50;100321.76;;;17.96;100.00
61697;BME280;47610;52.252;20.922;2023-06-14T16:24:55;100322.41;;;17.98;100.00
61697;BME280;47610;52.252;20.922;2023-06-14T16:29:58;100321.23;;;17.99;100.00
61697;BME280;47610;52.252;20.922;2023-06-14T16:35:03;100327.23;;;17.98;100.00
61697;BME280;47610;52.252;20.922;2023-06-14T16:40:09;100327.97;;;17.90;100.00
61697;BME280;47610;52.252;20.922;2023-06-14T16:45:13;100328.23;;;17.79;100.00
61697;BME280;47610;52.252;20.922;2023-06-14T16:50:16;100325.23;;;17.71;100.00
61697;BME280;47610;52.252;20.922;2023-06-14T16:55:19;100328.79;;;17.67;100.00
61697;BME280;47610;52.252;20.922;2023-06-14T17:00:24;100332.92;;;17.69;100.00
61697;BME280;47610;52.252;20.922;2023-06-14T17:05:27;100336.56;;;17.68;100.00
61697;BME280;47610;52.252;20.922;2023-06-14T17:10:30;100334.45;;;17.55;100.00
61697;BME280;47610;52.252;20.922;2023-06-14T17:15:34;100331.39;;;17.44;100.00
61697;BME280;47610;52.252;20.922;2023-06-14T17:20:37;100325.64;;;17.36;100.00
61697;BME280;47610;52.252;20.922;2023-06-14T17:25:40;100326.54;;;17.31;100.00
61697;BME280;47610;52.252;20.922;2023-06-14T17:30:45;100330.88;;;17.27;100.00
61697;BME280;47610;52.252;20.922;2023-06-14T17:35:46;100332.69;;;17.23;100.00
61697;BME280;47610;52.252;20.922;2023-06-14T17:40:50;100330.72;;;17.20;100.00
61697;BME280;47610;52.252;20.922;2023-06-14T17:45:53;100332.80;;;17.17;100.00
61697;BME280;47610;52.252;20.922;2023-06-14T17:50:57;100338.12;;;17.12;100.00
61697;BME280;47610;52.252;20.922;2023-06-14T17:56:01;100340.13;;;17.08;100.00
61697;BME280;47610;52.252;20.922;2023-06-14T18:01:05;100344.73;;;17.05;100.00
61697;BME280;47610;52.252;20.922;2023-06-14T18:06:08;100343.71;;;16.99;100.00
61697;BME280;47610;52.252;20.922;2023-06-14T18:11:11;100344.07;;;16.96;100.00
61697;BME280;47610;52.252;20.922;2023-06-14T18:16:15;100345.48;;;16.94;100.00
61697;BME280;47610;52.252;20.922;2023-06-14T18:21:18;100350.66;;;16.95;100.00
61697;BME280;47610;52.252;20.922;2023-06-14T18:26:23;100355.15;;;16.96;100.00
61697;BME280;47610;52.252;20.922;2023-06-14T18:31:27;100358.17;;;16.94;100.00
61697;BME280;47610;52.252;20.922;2023-06-14T18:36:31;100361.05;;;16.93;100.00
61697;BME280;47610;52.252;20.922;2023-06-14T18:41:34;100365.52;;;16.90;100.00
61697;BME280;47610;52.252;20.922;2023-06-14T18:46:37;100364.09;;;16.90;100.00
61697;BME280;47610;52.252;20.922;2023-06-14T18:51:41;100367.08;;;16.94;100.00
61697;BME280;47610;52.252;20.922;2023-06-14T18:56:44;100370.73;;;16.91;100.00
61697;BME280;47610;52.252;20.922;2023-06-14T19:01:48;100373.52;;;16.84;100.00
61697;BME280;47610;52.252;20.922;2023-06-14T19:06:51;100379.37;;;16.71;100.00
61697;BME280;47610;52.252;20.922;2023-06-14T19:11:56;100378.57;;;16.64;100.00
61697;BME280;47610;52.252;20.922;2023-06-14T19:16:59;100386.09;;;16.59;100.00
61697;BME280;47610;52.252;20.922;2023-06-14T19:22:03;100392.52;;;16.52;100.00
61697;BME280;47610;52.252;20.922;2023-06-14T19:27:09;100397.34;;;16.44;100.00
61697;BME280;47610;52.252;20.922;2023-06-14T19:32:13;100395.72;;;16.32;100.00
61697;BME280;47610;52.252;20.922;2023-06-14T19:37:16;100399.02;;;16.24;100.00
61697;BME280;47610;52.252;20.922;2023-06-14T19:42:19;100395.93;;;16.16;100.00
61697;BME280;47610;52.252;20.922;2023-06-14T19:47:26;100395.30;;;16.15;100.00
61697;BME280;47610;52.252;20.922;2023-06-14T19:52:29;100390.45;;;16.13;100.00
61697;BME280;47610;52.252;20.922;2023-06-14T19:57:32;100391.45;;;16.11;100.00
61697;BME280;47610;52.252;20.922;2023-06-14T20:02:35;100393.78;;;16.06;100.00
61697;BME280;47610;52.252;20.922;2023-06-14T20:07:38;100401.09;;;15.97;100.00
61697;BME280;47610;52.252;20.922;2023-06-14T20:12:43;100401.08;;;15.90;100.00
61697;BME280;47610;52.252;20.922;2023-06-14T20:17:46;100400.27;;;15.88;100.00
61697;BME280;47610;52.252;20.922;2023-06-14T20:22:50;100398.36;;;15.90;100.00
61697;BME280;47610;52.252;20.922;2023-06-14T20:27:53;100396.78;;;15.85;100.00
61697;BME280;47610;52.252;20.922;2023-06-14T20:32:59;100395.45;;;15.85;100.00
61697;BME280;47610;52.252;20.922;2023-06-14T20:38:02;100395.52;;;15.93;100.00
61697;BME280;47610;52.252;20.922;2023-06-14T20:43:06;100398.30;;;16.00;100.00
61697;BME280;47610;52.252;20.922;2023-06-14T20:48:10;100393.69;;;16.05;100.00
61697;BME280;47610;52.252;20.922;2023-06-14T20:53:12;100398.64;;;16.07;100.00
61697;BME280;47610;52.252;20.922;2023-06-14T20:58:15;100400.40;;;16.05;100.00
61697;BME280;47610;52.252;20.922;2023-06-14T21:03:19;100405.13;;;16.03;100.00
61697;BME280;47610;52.252;20.922;2023-06-14T21:08:23;100403.41;;;16.00;100.00
61697;BME280;47610;52.252;20.922;2023-06-14T21:13:26;100403.14;;;15.97;100.00
61697;BME280;47610;52.252;20.922;2023-06-14T21:18:30;100406.56;;;15.95;100.00
61697;BME280;47610;52.252;20.922;2023-06-14T21:23:32;100404.31;;;15.94;100.00
61697;BME280;47610;52.252;20.922;2023-06-14T21:28:35;100406.52;;;15.93;100.00
61697;BME280;47610;52.252;20.922;2023-06-14T21:33:38;100401.73;;;15.90;100.00
61697;BME280;47610;52.252;20.922;2023-06-14T21:38:42;100404.15;;;15.87;100.00
61697;BME280;47610;52.252;20.922;2023-06-14T21:43:47;100405.91;;;15.84;100.00
61697;BME280;47610;52.252;20.922;2023-06-14T21:48:51;100398.31;;;15.81;100.00
61697;BME280;47610;52.252;20.922;2023-06-14T21:53:55;100394.73;;;15.77;100.00
61697;BME280;47610;52.252;20.922;2023-06-14T21:58:58;100393.38;;;15.74;100.00
61697;BME280;47610;52.252;20.922;2023-06-14T22:04:01;100402.31;;;15.70;100.00
61697;BME280;47610;52.252;20.922;2023-06-14T22:09:07;100400.88;;;15.66;100.00
61697;BME280;47610;52.252;20.922;2023-06-14T22:14:11;100392.20;;;15.61;100.00
61697;BME280;47610;52.252;20.922;2023-06-14T22:19:15;100390.77;;;15.55;100.00
61697;BME280;47610;52.252;20.922;2023-06-14T22:24:19;100382.12;;;15.50;100.00
61697;BME280;47610;52.252;20.922;2023-06-14T22:29:22;100373.57;;;15.44;100.00
61697;BME280;47610;52.252;20.922;2023-06-14T22:34:26;100374.89;;;15.39;100.00
61697;BME280;47610;52.252;20.922;2023-06-14T22:39:30;100379.29;;;15.41;100.00
61697;BME280;47610;52.252;20.922;2023-06-14T22:44:34;100374.98;;;15.42;100.00
61697;BME280;47610;52.252;20.922;2023-06-14T22:49:36;100370.09;;;15.44;100.00
61697;BME280;47610;52.252;20.922;2023-06-14T22:54:39;100372.27;;;15.45;100.00
61697;BME280;47610;52.252;20.922;2023-06-14T22:59:42;100364.27;;;15.43;100.00
61697;BME280;47610;52.252;20.922;2023-06-14T23:04:45;100363.95;;;15.41;100.00
61697;BME280;47610;52.252;20.922;2023-06-14T23:09:49;100363.10;;;15.38;100.00
61697;BME280;47610;52.252;20.922;2023-06-14T23:14:52;100360.57;;;15.37;100.00
61697;BME280;47610;52.252;20.922;2023-06-14T23:19:55;100361.54;;;15.33;100.00
61697;BME280;47610;52.252;20.922;2023-06-14T23:24:58;100365.23;;;15.34;100.00
61697;BME280;47610;52.252;20.922;2023-06-14T23:30:04;100367.54;;;15.33;100.00
61697;BME280;47610;52.252;20.922;2023-06-14T23:35:09;100369.95;;;15.25;100.00
61697;BME280;47610;52.252;20.922;2023-06-14T23:40:14;100373.44;;;15.17;100.00
61697;BME280;47610;52.252;20.922;2023-06-14T23:45:18;100376.48;;;15.09;100.00
61697;BME280;47610;52.252;20.922;2023-06-14T23:50:22;100371.62;;;14.96;100.00
61697;BME280;47610;52.252;20.922;2023-06-14T23:55:28;100364.63;;;14.85;100.00
